Time;durP1;ratioP1;P1;durP2;ratioP2;P2;SDS_P1;SDS_P2;PMS_P1;PMS_P2;Temp;Humidity;BMP_temperature;BMP_pressure;BME280_temperature;BME280_humidity;BME280_pressure;Samples;Min_cycle;Max_cycle;Signal;HPM_P1;HPM_P2
2023/05/26 00:00:09;;;;;;;20.13;3.90;;;;;;;-145.18;100.00;46644.78;5052048;28;20029;-64
2023/05/26 00:02:39;;;;;;;16.80;5.20;;;;;;;-145.18;100.00;46644.78;5033845;28;20029;-63
2023/05/26 00:05:05;;;;;;;16.17;3.87;;;;;;;-145.18;100.00;46652.59;5051355;28;20250;-63
2023/05/26 00:07:31;;;;;;;17.60;3.73;;;;;;;-145.18;100.00;46654.53;5051644;28;20297;-63
2023/05/26 00:09:56;;;;;;;29.00;3.97;;;;;;;-145.18;100.00;46664.31;5037468;28;20363;-64
2023/05/26 00:12:22;;;;;;;20.00;4.40;;;;;;;-145.18;100.00;46668.22;5055442;28;20465;-64
2023/05/26 00:14:48;;;;;;;21.20;3.87;;;;;;;-145.18;100.00;46664.31;5055635;28;20044;-64
2023/05/26 00:17:16;;;;;;;25.87;3.77;;;;;;;-145.18;100.00;46668.22;5055053;28;20053;-64
2023/05/26 00:19:42;;;;;;;17.83;3.87;;;;;;;-145.18;100.00;46672.13;5023003;28;20271;-64
2023/05/26 00:22:07;;;;;;;18.90;4.13;;;;;;;-145.18;100.00;46670.16;5024055;28;20335;-64
2023/05/26 00:24:33;;;;;;;17.93;3.97;;;;;;;-145.18;100.00;46676.03;5055091;28;20033;-63
2023/05/26 00:26:58;;;;;;;22.17;3.57;;;;;;;-145.18;100.00;46676.03;5054983;28;20053;-63
2023/05/26 00:29:23;;;;;;;25.00;3.43;;;;;;;-145.18;100.00;46679.94;5037161;28;20029;-64
2023/05/26 00:31:49;;;;;;;24.10;4.87;;;;;;;-145.18;100.00;46685.78;5054736;28;20071;-64
2023/05/26 00:34:14;;;;;;;17.13;3.40;;;;;;;-145.18;100.00;46681.88;5053672;28;20024;-63
2023/05/26 00:36:40;;;;;;;23.17;4.53;;;;;;;-145.18;100.00;46679.94;5055047;28;20039;-63
2023/05/26 00:39:05;;;;;;;29.10;4.30;;;;;;;-145.18;100.00;46683.84;5055091;28;20029;-63
2023/05/26 00:41:30;;;;;;;18.70;3.43;;;;;;;-145.18;100.00;46693.59;5054865;28;20029;-64
2023/05/26 00:43:56;;;;;;;18.33;3.87;;;;;;;-145.18;100.00;46691.66;5040799;28;20029;-64
2023/05/26 00:46:21;;;;;;;26.70;4.43;;;;;;;-145.18;100.00;46697.50;5034733;28;20025;-64
2023/05/26 00:48:47;;;;;;;21.67;4.30;;;;;;;-145.18;100.00;46695.56;5017123;28;20030;-64
2023/05/26 00:51:13;;;;;;;20.70;4.03;;;;;;;-145.18;100.00;46701.41;5041048;28;20087;-64
2023/05/26 00:53:43;;;;;;;17.73;3.90;;;;;;;-145.18;100.00;46703.38;5054951;28;20083;-63
2023/05/26 00:56:15;;;;;;;18.00;5.00;;;;;;;-145.18;100.00;46703.38;5046967;28;20049;-63
2023/05/26 00:58:41;;;;;;;27.53;4.27;;;;;;;-145.18;100.00;46703.38;5034598;28;20313;-64
2023/05/26 01:01:07;;;;;;;18.73;3.67;;;;;;;-145.18;100.00;46699.47;5034688;28;20354;-64
2023/05/26 01:03:33;;;;;;;21.23;3.67;;;;;;;-145.18;100.00;46701.41;5016841;28;20349;-64
2023/05/26 01:05:58;;;;;;;23.13;3.67;;;;;;;-145.18;100.00;46701.41;5034872;28;20075;-64
2023/05/26 01:08:24;;;;;;;15.87;4.00;;;;;;;-145.18;100.00;46701.41;5049156;28;20466;-63
2023/05/26 01:10:55;;;;;;;17.87;3.30;;;;;;;-145.18;100.00;46699.47;5054636;28;20033;-64
2023/05/26 01:13:24;;;;;;;17.90;3.83;;;;;;;-145.18;100.00;46707.28;5048316;28;20033;-64
2023/05/26 01:15:55;;;;;;;16.43;3.53;;;;;;;-145.18;100.00;46701.41;5041649;28;20308;-64
2023/05/26 01:18:31;;;;;;;20.97;3.93;;;;;;;-145.18;100.00;46701.41;5054493;28;20254;-64
2023/05/26 01:20:59;;;;;;;19.42;3.13;;;;;;;-145.18;100.00;46697.50;5053635;28;20260;-64
2023/05/26 01:23:39;;;;;;;20.23;3.40;;;;;;;-145.18;100.00;46703.38;5046924;28;20029;-64
2023/05/26 01:26:13;;;;;;;22.00;3.57;;;;;;;-145.18;100.00;46697.50;5033980;28;20787;-64
2023/05/26 01:28:42;;;;;;;16.47;3.57;;;;;;;-145.18;100.00;46701.41;5034117;28;20354;-64
2023/05/26 01:31:08;;;;;;;22.03;4.27;;;;;;;-145.18;100.00;46701.41;5034024;28;20330;-63
2023/05/26 01:33:35;;;;;;;27.03;3.67;;;;;;;-145.18;100.00;46699.47;5034278;28;20358;-64
2023/05/26 01:36:00;;;;;;;22.63;4.43;;;;;;;-145.18;100.00;46703.38;5044269;28;20277;-63
2023/05/26 01:38:26;;;;;;;24.93;4.20;;;;;;;-145.18;100.00;46701.41;5053903;28;20312;-64
2023/05/26 01:41:01;;;;;;;22.30;3.67;;;;;;;-145.18;100.00;46703.38;5052149;28;20029;-64
2023/05/26 01:44:08;;;;;;;20.90;3.58;;;;;;;-145.18;100.00;46699.47;5054075;28;20096;-64
2023/05/26 01:46:49;;;;;;;17.48;3.40;;;;;;;-145.18;100.00;46701.41;4972726;28;20121;-64
2023/05/26 01:49:16;;;;;;;21.57;3.30;;;;;;;-145.18;100.00;46701.41;5045231;28;20072;-64
2023/05/26 01:51:56;;;;;;;14.50;2.60;;;;;;;-145.18;100.00;46697.50;5053853;28;20260;-64
2023/05/26 01:54:24;;;;;;;24.53;3.67;;;;;;;-145.18;100.00;46699.47;5053556;28;20302;-64
2023/05/26 01:56:52;;;;;;;23.13;3.63;;;;;;;-145.18;100.00;46701.41;5053142;28;21112;-64
2023/05/26 01:59:19;;;;;;;23.77;3.40;;;;;;;-145.18;100.00;46695.56;5053444;28;20337;-64
2023/05/26 02:01:45;;;;;;;18.77;3.57;;;;;;;-145.18;100.00;46701.41;5033057;28;20278;-64
2023/05/26 02:04:12;;;;;;;28.27;3.77;;;;;;;-145.18;100.00;46699.47;5033370;28;20320;-64
2023/05/26 02:06:38;;;;;;;24.10;4.00;;;;;;;-145.18;100.00;46693.59;5033596;28;20255;-64
2023/05/26 02:09:05;;;;;;;18.67;3.20;;;;;;;-145.18;100.00;46695.56;5039727;28;20847;-64
2023/05/26 02:11:30;;;;;;;16.60;3.57;;;;;;;-145.18;100.00;46693.59;5053506;28;20254;-64
2023/05/26 02:13:56;;;;;;;15.73;3.23;;;;;;;-145.18;100.00;46697.50;5053144;28;20304;-64
2023/05/26 02:16:22;;;;;;;16.00;3.17;;;;;;;-145.18;100.00;46687.75;5035129;28;20071;-64
2023/05/26 02:18:49;;;;;;;20.00;3.87;;;;;;;-145.18;100.00;46687.75;5053367;28;20096;-64
2023/05/26 02:21:15;;;;;;;16.20;2.90;;;;;;;-145.18;100.00;46689.69;5053223;28;20668;-64
2023/05/26 02:23:42;;;;;;;21.50;3.87;;;;;;;-145.18;100.00;46697.50;5053265;28;20292;-64
2023/05/26 02:26:08;;;;;;;21.30;3.37;;;;;;;-145.18;100.00;46693.59;5043269;28;20498;-64
2023/05/26 02:28:33;;;;;;;17.87;3.70;;;;;;;-145.18;100.00;46691.66;5033184;28;20328;-64
2023/05/26 02:30:59;;;;;;;18.53;2.97;;;;;;;-145.18;100.00;46689.69;5032240;28;20034;-64
2023/05/26 02:33:24;;;;;;;23.13;3.27;;;;;;;-145.18;100.00;46683.84;5032804;28;20116;-64
2023/05/26 02:35:49;;;;;;;28.50;4.47;;;;;;;-145.18;100.00;46695.56;5037216;28;20386;-64
2023/05/26 02:38:15;;;;;;;21.20;3.17;;;;;;;-145.18;100.00;46689.69;5049437;28;20124;-63
2023/05/26 02:40:40;;;;;;;18.70;2.80;;;;;;;-145.18;100.00;46689.69;5052093;28;20099;-64
2023/05/26 02:43:06;;;;;;;21.23;2.93;;;;;;;-145.18;100.00;46695.56;5052875;28;20091;-64
2023/05/26 02:45:31;;;;;;;30.53;3.40;;;;;;;-145.18;100.00;46689.69;5052582;28;20032;-65
2023/05/26 02:47:56;;;;;;;30.60;3.50;;;;;;;-145.18;100.00;46689.69;5034677;28;20029;-64
2023/05/26 02:50:22;;;;;;;26.03;3.53;;;;;;;-145.18;100.00;46693.59;5034669;28;20032;-64
2023/05/26 02:52:47;;;;;;;22.10;3.93;;;;;;;-145.18;100.00;46687.75;5051842;28;20037;-64
2023/05/26 02:55:13;;;;;;;18.57;3.17;;;;;;;-145.18;100.00;46683.84;5036231;28;20032;-64
2023/05/26 02:57:39;;;;;;;21.63;3.73;;;;;;;-145.18;100.00;46695.56;5032753;28;20032;-64
2023/05/26 03:00:11;;;;;;;14.00;3.40;;;;;;;-145.18;100.00;46683.84;5032566;28;20032;-64
2023/05/26 03:02:37;;;;;;;19.63;3.63;;;;;;;-145.18;100.00;46685.78;5015942;28;20033;-64
2023/05/26 03:05:03;;;;;;;28.40;3.50;;;;;;;-145.18;100.00;46681.88;5032684;28;20257;-64
2023/05/26 03:07:29;;;;;;;20.00;4.30;;;;;;;-145.18;100.00;46685.78;5032364;28;20357;-64
2023/05/26 03:09:54;;;;;;;14.83;3.27;;;;;;;-145.18;100.00;46683.84;5043437;28;20290;-64
2023/05/26 03:12:19;;;;;;;24.10;4.83;;;;;;;-145.18;100.00;46685.78;5052564;28;20071;-64
2023/05/26 03:14:45;;;;;;;27.97;3.97;;;;;;;-145.18;100.00;46689.69;5052432;28;20118;-64
2023/05/26 03:17:10;;;;;;;17.63;4.33;;;;;;;-145.18;100.00;46683.84;5052328;28;20494;-64
2023/05/26 03:19:36;;;;;;;23.93;4.07;;;;;;;-145.18;100.00;46691.66;5052449;28;20062;-64
2023/05/26 03:22:01;;;;;;;19.30;3.27;;;;;;;-145.18;100.00;46689.69;5052190;28;20025;-64
2023/05/26 03:24:27;;;;;;;21.00;4.10;;;;;;;-145.18;100.00;46685.78;5048212;28;20521;-64
2023/05/26 03:26:52;;;;;;;23.97;5.07;;;;;;;-145.18;100.00;46683.84;5032344;28;20064;-64
2023/05/26 03:29:18;;;;;;;35.70;4.57;;;;;;;-145.18;100.00;46683.84;5032042;28;20029;-64
2023/05/26 03:31:43;;;;;;;23.70;3.93;;;;;;;-145.18;100.00;46674.06;5032035;28;20108;-64
2023/05/26 03:34:09;;;;;;;20.60;3.47;;;;;;;-145.18;100.00;46676.03;5032055;28;20043;-64
2023/05/26 03:36:36;;;;;;;21.13;3.63;;;;;;;-145.18;100.00;46676.03;5044202;28;20035;-64
2023/05/26 03:39:03;;;;;;;24.53;3.40;;;;;;;-145.18;100.00;46681.88;5052263;28;20104;-64
2023/05/26 03:41:29;;;;;;;18.33;2.97;;;;;;;-145.18;100.00;46679.94;5045895;28;20262;-64
2023/05/26 03:43:54;;;;;;;19.77;3.40;;;;;;;-145.18;100.00;46679.94;5034856;28;20290;-64
2023/05/26 03:46:20;;;;;;;29.23;4.73;;;;;;;-145.18;100.00;46674.06;5036139;28;20290;-64
2023/05/26 03:48:45;;;;;;;23.73;3.50;;;;;;;-145.18;100.00;46676.03;5036225;28;20029;-64
2023/05/26 03:51:11;;;;;;;23.93;4.90;;;;;;;-145.18;100.00;46666.25;5035987;28;20078;-64
2023/05/26 03:53:37;;;;;;;18.90;3.00;;;;;;;-145.18;100.00;46674.06;5036102;28;20033;-64
2023/05/26 03:56:03;;;;;;;15.10;3.43;;;;;;;-145.18;100.00;46676.03;5036124;28;20527;-64
2023/05/26 03:58:28;;;;;;;22.77;4.13;;;;;;;-145.18;100.00;46674.06;5046398;28;20052;-64
2023/05/26 04:00:55;;;;;;;20.80;3.90;;;;;;;-145.18;100.00;46674.06;5055896;28;20318;-64
2023/05/26 04:03:21;;;;;;;25.30;4.17;;;;;;;-145.18;100.00;46672.13;5055852;28;20025;-64
2023/05/26 04:05:47;;;;;;;21.33;4.33;;;;;;;-145.18;100.00;46674.06;5047378;28;20266;-64
2023/05/26 04:08:13;;;;;;;24.97;4.40;;;;;;;-145.18;100.00;46674.06;5036133;28;20609;-64
2023/05/26 04:10:38;;;;;;;29.47;3.40;;;;;;;-145.18;100.00;46679.94;5017860;28;20041;-64
2023/05/26 04:13:03;;;;;;;30.43;4.80;;;;;;;-145.18;100.00;46679.94;5001550;28;20402;-64
2023/05/26 04:15:29;;;;;;;22.23;3.83;;;;;;;-145.18;100.00;46672.13;5055264;28;20045;-64
2023/05/26 04:17:54;;;;;;;24.97;3.60;;;;;;;-145.18;100.00;46672.13;5055715;28;20106;-64
2023/05/26 04:20:20;;;;;;;27.47;4.33;;;;;;;-145.18;100.00;46672.13;5055407;28;20033;-64
2023/05/26 04:22:45;;;;;;;25.50;4.10;;;;;;;-145.18;100.00;46672.13;5054737;28;20568;-64
2023/05/26 04:25:11;;;;;;;18.87;3.93;;;;;;;-145.18;100.00;46679.94;5044091;28;20033;-64
2023/05/26 04:27:37;;;;;;;20.93;3.80;;;;;;;-145.18;100.00;46666.25;5042780;28;20025;-64
2023/05/26 04:30:04;;;;;;;20.20;4.40;;;;;;;-145.18;100.00;46670.16;5044023;28;20063;-64
2023/05/26 04:32:29;;;;;;;17.20;5.27;;;;;;;-145.18;100.00;46672.13;5055520;28;20402;-64
2023/05/26 04:34:56;;;;;;;28.03;3.93;;;;;;;-145.18;100.00;46677.97;5055104;28;20270;-64
2023/05/26 04:37:21;;;;;;;26.33;4.63;;;;;;;-145.18;100.00;46672.13;5055319;28;20044;-64
2023/05/26 04:39:47;;;;;;;22.90;4.10;;;;;;;-145.18;100.00;46670.16;5055201;28;20250;-64
2023/05/26 04:42:12;;;;;;;21.23;4.63;;;;;;;-145.18;100.00;46674.06;5055262;28;20393;-64
2023/05/26 04:44:38;;;;;;;28.53;4.60;;;;;;;-145.18;100.00;46676.03;5054840;28;20078;-64
2023/05/26 04:47:08;;;;;;;26.77;4.47;;;;;;;-145.18;100.00;46672.13;5055638;28;20040;-64
2023/05/26 04:49:37;;;;;;;22.27;4.87;;;;;;;-145.18;100.00;46672.13;5054633;28;20044;-64
2023/05/26 04:52:03;;;;;;;27.40;4.63;;;;;;;-145.18;100.00;46677.97;5037597;28;20262;-64
2023/05/26 04:54:29;;;;;;;20.43;4.00;;;;;;;-145.18;100.00;46679.94;5053693;28;20299;-64
2023/05/26 04:56:54;;;;;;;21.57;3.47;;;;;;;-145.18;100.00;46677.97;5054449;28;20269;-64
2023/05/26 04:59:23;;;;;;;32.07;4.33;;;;;;;-145.18;100.00;46677.97;5054861;28;20061;-65
2023/05/26 05:01:49;;;;;;;28.17;3.83;;;;;;;-145.18;100.00;46677.97;5052937;28;20033;-64
2023/05/26 05:04:15;;;;;;;20.23;3.83;;;;;;;-145.18;100.00;46676.03;5042430;28;20329;-64
2023/05/26 05:06:41;;;;;;;25.73;4.93;;;;;;;-145.18;100.00;46679.94;5051454;28;20266;-64
2023/05/26 05:09:06;;;;;;;22.97;3.77;;;;;;;-145.18;100.00;46679.94;5034638;28;20033;-64
2023/05/26 05:11:31;;;;;;;25.97;3.37;;;;;;;-145.18;100.00;46676.03;5043077;28;20112;-64
2023/05/26 05:13:57;;;;;;;29.03;5.07;;;;;;;-145.18;100.00;46679.94;5041293;28;20037;-64
2023/05/26 05:16:23;;;;;;;25.23;4.10;;;;;;;-145.18;100.00;46679.94;5025660;28;20041;-64
2023/05/26 05:18:48;;;;;;;24.37;4.17;;;;;;;-145.18;100.00;46681.88;5037530;28;20037;-64
2023/05/26 05:21:14;;;;;;;28.00;4.00;;;;;;;-145.18;100.00;46677.97;5016996;28;20436;-64
2023/05/26 05:23:39;;;;;;;23.93;4.03;;;;;;;-145.18;100.00;46677.97;5034381;28;20029;-64
2023/05/26 05:26:05;;;;;;;37.00;4.47;;;;;;;-145.18;100.00;46676.03;5034500;28;20061;-64
2023/05/26 05:28:30;;;;;;;22.77;3.23;;;;;;;-145.18;100.00;46677.97;5048642;28;20039;-65
2023/05/26 05:30:56;;;;;;;21.10;3.90;;;;;;;-145.18;100.00;46676.03;5049002;28;20037;-64
2023/05/26 05:33:21;;;;;;;22.73;3.60;;;;;;;-145.18;100.00;46670.16;5049101;28;20047;-64
2023/05/26 05:35:47;;;;;;;23.50;3.60;;;;;;;-145.18;100.00;46668.22;5039167;28;20491;-64
2023/05/26 05:38:12;;;;;;;21.70;4.00;;;;;;;-145.18;100.00;46660.41;5033923;28;20252;-64
2023/05/26 05:40:38;;;;;;;20.73;3.93;;;;;;;-145.18;100.00;46650.63;5035968;28;20021;-64
2023/05/26 05:43:04;;;;;;;19.27;3.53;;;;;;;-145.18;100.00;46646.72;5032285;28;20453;-64
2023/05/26 05:45:29;;;;;;;21.97;3.50;;;;;;;-145.18;100.00;46623.28;5035700;28;20033;-64
2023/05/26 05:47:55;;;;;;;24.43;4.00;;;;;;;-145.18;100.00;46613.50;5041108;28;20021;-65
2023/05/26 05:50:20;;;;;;;17.27;3.10;;;;;;;-145.18;100.00;46595.94;5037949;28;20029;-64
2023/05/26 05:52:46;;;;;;;24.47;4.27;;;;;;;-145.18;100.00;46570.53;5041329;28;20506;-64
2023/05/26 05:55:11;;;;;;;27.30;3.57;;;;;;;-145.18;100.00;46568.59;5040631;28;20044;-64
2023/05/26 05:57:36;;;;;;;17.77;3.83;;;;;;;-145.18;100.00;46558.81;5025039;28;20071;-64
2023/05/26 06:00:07;;;;;;;28.87;4.63;;;;;;;-145.18;100.00;46549.06;5021485;28;20121;-64
2023/05/26 06:02:32;;;;;;;30.13;4.67;;;;;;;-145.18;100.00;46543.19;5019724;28;20041;-64
2023/05/26 06:04:58;;;;;;;15.07;2.97;;;;;;;-145.18;100.00;46539.28;5023255;28;20266;-64
2023/05/26 06:07:23;;;;;;;26.83;3.60;;;;;;;-145.18;100.00;46549.06;5042099;28;20044;-64
2023/05/26 06:09:49;;;;;;;29.27;4.07;;;;;;;-145.18;100.00;46547.09;5038606;28;20045;-64
2023/05/26 06:12:14;;;;;;;27.00;3.70;;;;;;;-145.18;100.00;46543.19;5023921;28;20064;-64
2023/05/26 06:14:40;;;;;;;21.77;3.80;;;;;;;-145.18;100.00;46543.19;5023658;28;20492;-65
2023/05/26 06:17:05;;;;;;;22.30;4.53;;;;;;;-145.18;100.00;46547.09;5043307;28;20040;-64
2023/05/26 06:19:31;;;;;;;20.93;3.47;;;;;;;-145.18;100.00;46562.72;5041296;28;20064;-65
2023/05/26 06:21:56;;;;;;;19.17;3.47;;;;;;;-145.18;100.00;46560.78;5051832;28;20031;-64
2023/05/26 06:24:22;;;;;;;21.03;4.17;;;;;;;-145.18;100.00;46562.72;5053082;28;20044;-64
2023/05/26 06:26:48;;;;;;;22.13;3.83;;;;;;;-145.18;100.00;46566.63;5033181;28;20057;-64
2023/05/26 06:29:16;;;;;;;21.57;3.63;;;;;;;-145.18;100.00;46564.69;5032967;28;20686;-64
2023/05/26 06:31:42;;;;;;;24.67;3.23;;;;;;;-145.18;100.00;46570.53;5029562;28;20508;-64
2023/05/26 06:34:07;;;;;;;23.37;3.37;;;;;;;-145.18;100.00;46574.44;5033126;28;20267;-64
2023/05/26 06:36:33;;;;;;;26.20;3.67;;;;;;;-145.18;100.00;46576.41;5033238;28;20051;-64
2023/05/26 06:38:59;;;;;;;22.27;3.90;;;;;;;-145.18;100.00;46590.06;5015003;28;20407;-64
2023/05/26 06:41:26;;;;;;;19.70;3.60;;;;;;;-145.18;100.00;46592.03;5022560;28;20434;-64
2023/05/26 06:43:51;;;;;;;26.83;5.37;;;;;;;-145.18;100.00;46597.88;5042013;28;20262;-64
2023/05/26 06:46:17;;;;;;;20.27;3.07;;;;;;;-145.18;100.00;46590.06;5033463;28;20262;-64
2023/05/26 06:48:42;;;;;;;23.87;4.33;;;;;;;-145.18;100.00;46595.94;5040605;28;20112;-65
2023/05/26 06:51:07;;;;;;;29.23;4.57;;;;;;;-145.18;100.00;46599.84;5051933;28;20033;-65
2023/05/26 06:53:34;;;;;;;9.57;3.03;;;;;;;-145.18;100.00;46601.78;5048165;28;20047;-64
2023/05/26 06:56:00;;;;;;;17.47;3.77;;;;;;;-145.18;100.00;46615.47;5047305;28;20047;-64
2023/05/26 06:58:25;;;;;;;20.20;3.03;;;;;;;-145.18;100.00;46623.28;5052460;28;20262;-65
2023/05/26 07:00:58;;;;;;;18.13;3.60;;;;;;;-145.18;100.00;46635.00;5051770;28;20045;-64
2023/05/26 07:03:25;;;;;;;26.33;3.93;;;;;;;-145.18;100.00;46644.78;5052245;28;20045;-65
2023/05/26 07:05:50;;;;;;;16.90;3.73;;;;;;;-145.18;100.00;46662.34;5050979;28;20064;-64
2023/05/26 07:08:15;;;;;;;24.67;4.17;;;;;;;-145.18;100.00;46662.34;5047041;28;20060;-65
2023/05/26 07:10:41;;;;;;;23.43;3.60;;;;;;;-145.18;100.00;46672.13;5040659;28;20048;-65
2023/05/26 07:13:06;;;;;;;28.40;4.67;;;;;;;-145.18;100.00;46677.97;5033592;28;20059;-65
2023/05/26 07:15:32;;;;;;;27.03;4.00;;;;;;;-145.18;100.00;46674.06;5032998;28;20479;-65
2023/05/26 07:17:57;;;;;;;18.17;3.60;;;;;;;-145.18;100.00;46685.78;5031599;28;20049;-65
2023/05/26 07:20:22;;;;;;;14.43;3.27;;;;;;;-145.18;100.00;46668.22;5020178;28;20028;-64
2023/05/26 07:22:48;;;;;;;22.87;4.10;;;;;;;-145.18;100.00;46662.34;5051947;28;20033;-64
2023/05/26 07:25:13;;;;;;;19.30;3.37;;;;;;;-145.18;100.00;46677.97;5034291;28;20051;-64
2023/05/26 07:27:38;;;;;;;21.60;3.73;;;;;;;-145.18;100.00;46660.41;5051147;28;20053;-64
2023/05/26 07:30:05;;;;;;;13.30;3.50;;;;;;;-145.18;100.00;46640.88;5051369;28;20064;-64
2023/05/26 07:32:30;;;;;;;26.27;4.60;;;;;;;-145.18;100.00;46644.78;5051890;28;20402;-65
2023/05/26 07:34:55;;;;;;;14.23;3.60;;;;;;;-145.18;100.00;46668.22;5033662;28;20029;-65
2023/05/26 07:37:21;;;;;;;18.13;3.80;;;;;;;-145.18;100.00;46683.84;5051806;28;20044;-65
2023/05/26 07:39:46;;;;;;;17.03;3.30;;;;;;;-145.18;100.00;46697.50;5052057;28;20025;-64
2023/05/26 07:42:12;;;;;;;22.97;3.60;;;;;;;-145.18;100.00;46672.13;5051369;28;20103;-65
2023/05/26 07:44:37;;;;;;;18.77;3.40;;;;;;;-145.18;100.00;46683.84;5050005;28;20037;-65
2023/05/26 07:47:03;;;;;;;17.17;3.30;;;;;;;-145.18;100.00;46707.28;5033794;28;20471;-65
2023/05/26 07:49:28;;;;;;;26.10;3.63;;;;;;;-145.18;100.00;46691.66;5032042;28;20033;-65
2023/05/26 07:51:53;;;;;;;18.00;3.57;;;;;;;-145.18;100.00;46728.75;5014516;28;20041;-65
2023/05/26 07:54:19;;;;;;;13.73;3.27;;;;;;;-145.18;100.00;46705.31;5032098;28;20475;-64
2023/05/26 07:56:44;;;;;;;16.27;3.63;;;;;;;-145.18;100.00;46719.00;5031923;28;20037;-64
2023/05/26 07:59:10;;;;;;;19.57;3.90;;;;;;;-145.18;100.00;46740.47;5031779;28;20044;-64
2023/05/26 08:01:36;;;;;;;20.63;3.13;;;;;;;-145.18;100.00;46795.19;5045598;28;20041;-64
2023/05/26 08:04:01;;;;;;;19.07;4.50;;;;;;;-145.18;100.00;46844.00;5031832;28;20076;-64
2023/05/26 08:06:27;;;;;;;23.40;2.90;;;;;;;-145.18;100.00;46844.00;5014535;28;20033;-65
2023/05/26 08:08:53;;;;;;;18.40;3.60;;;;;;;-145.18;100.00;46890.91;5032052;28;20079;-65
2023/05/26 08:11:18;;;;;;;22.73;3.83;;;;;;;-145.18;100.00;46842.06;5031896;28;20071;-65
2023/05/26 08:13:44;;;;;;;16.47;3.60;;;;;;;-145.18;100.00;46902.63;5031804;28;20376;-65
2023/05/26 08:16:10;;;;;;;19.03;3.17;;;;;;;-145.18;100.00;47326.53;5049277;28;20032;-65
2023/05/26 08:18:35;;;;;;;21.50;3.47;;;;;;;-145.18;100.00;47404.69;5051006;28;20041;-65
2023/05/26 08:21:00;;;;;;;18.17;3.50;;;;;;;-145.18;100.00;47426.19;5009588;28;20036;-65
2023/05/26 08:23:26;;;;;;;20.67;3.70;;;;;;;-145.18;100.00;47414.47;5031782;28;20167;-65
2023/05/26 08:25:51;;;;;;;16.10;3.07;;;;;;;-145.18;100.00;47400.78;5031600;28;20037;-64
2023/05/26 08:28:16;;;;;;;22.77;4.27;;;;;;;-145.18;100.00;47379.28;5040687;28;20041;-65
2023/05/26 08:30:42;;;;;;;15.67;3.27;;;;;;;-145.18;100.00;47383.19;5028291;28;20037;-65
2023/05/26 08:33:07;;;;;;;19.87;3.60;;;;;;;-145.18;100.00;47381.25;5027360;28;20139;-65
2023/05/26 08:35:33;;;;;;;19.03;3.57;;;;;;;-145.18;100.00;47375.38;5043645;28;20079;-64
2023/05/26 08:37:58;;;;;;;10.83;3.10;;;;;;;-145.18;100.00;47348.03;5042337;28;20037;-65
2023/05/26 08:40:23;;;;;;;16.43;3.70;;;;;;;-145.18;100.00;47365.63;5016987;28;20037;-65
2023/05/26 08:42:53;;;;;;;13.83;3.23;;;;;;;-145.18;100.00;47326.53;5021159;28;20478;-65
2023/05/26 08:45:19;;;;;;;16.60;3.77;;;;;;;-145.18;100.00;47303.09;5048662;28;20040;-65
2023/05/26 08:47:47;;;;;;;18.83;3.40;;;;;;;-145.18;100.00;47287.47;5043528;28;20036;-65
2023/05/26 08:50:15;;;;;;;12.90;3.37;;;;;;;-145.18;100.00;47295.28;5038932;28;20106;-65
2023/05/26 08:52:42;;;;;;;13.20;2.90;;;;;;;-145.18;100.00;47281.59;5038538;28;20087;-65
2023/05/26 08:55:08;;;;;;;19.03;3.63;;;;;;;-145.18;100.00;47293.31;5034879;28;20036;-65
2023/05/26 08:57:34;;;;;;;19.03;3.43;;;;;;;-145.18;100.00;47279.66;5034901;28;20041;-64
2023/05/26 08:59:59;;;;;;;15.03;3.33;;;;;;;-145.18;100.00;47279.66;5016561;28;20061;-65
2023/05/26 09:02:26;;;;;;;11.73;3.13;;;;;;;-145.18;100.00;47267.94;5045189;28;20047;-64
2023/05/26 09:04:52;;;;;;;17.13;3.03;;;;;;;-145.18;100.00;47246.44;5044080;28;20372;-65
2023/05/26 09:07:20;;;;;;;12.50;3.57;;;;;;;-145.18;100.00;47262.06;5043067;28;20136;-65
2023/05/26 09:09:46;;;;;;;17.43;3.53;;;;;;;-145.18;100.00;47250.34;5042173;28;20032;-65
2023/05/26 09:12:12;;;;;;;14.93;3.77;;;;;;;-145.18;100.00;47242.53;5037252;28;20045;-65
2023/05/26 09:14:39;;;;;;;9.37;2.73;;;;;;;-145.18;100.00;47256.22;5034223;28;20514;-65
2023/05/26 09:17:04;;;;;;;10.87;3.17;;;;;;;-145.18;100.00;47240.56;5034165;28;20045;-65
2023/05/26 09:19:32;;;;;;;18.07;3.47;;;;;;;-145.18;100.00;47250.34;5034803;28;20032;-65
2023/05/26 09:22:05;;;;;;;16.27;4.07;;;;;;;-145.18;100.00;47246.44;5035375;28;20060;-65
2023/05/26 09:24:42;;;;;;;14.63;2.97;;;;;;;-145.18;100.00;47242.53;5034421;28;20033;-65
2023/05/26 09:27:20;;;;;;;13.83;3.73;;;;;;;-145.18;100.00;47242.53;5042367;28;20061;-64
2023/05/26 09:29:50;;;;;;;18.00;2.77;;;;;;;-145.18;100.00;47228.84;5049060;28;20037;-64
2023/05/26 09:32:15;;;;;;;18.23;3.50;;;;;;;-145.18;100.00;47223.00;5039232;28;20514;-64
2023/05/26 09:34:41;;;;;;;10.93;3.20;;;;;;;-145.18;100.00;47209.31;5034158;28;20116;-64
2023/05/26 09:37:08;;;;;;;16.83;2.87;;;;;;;-145.18;100.00;47240.56;5025592;28;20041;-64
2023/05/26 09:39:34;;;;;;;8.93;2.33;;;;;;;-145.18;100.00;47236.66;5050936;28;20127;-64
2023/05/26 09:42:06;;;;;;;14.83;3.27;;;;;;;-145.18;100.00;47240.56;5040458;28;20049;-64
2023/05/26 09:44:32;;;;;;;15.27;3.27;;;;;;;-145.18;100.00;47228.84;5045161;28;20033;-64
2023/05/26 09:46:57;;;;;;;13.10;3.13;;;;;;;-145.18;100.00;47213.22;5046840;28;20032;-64
2023/05/26 09:49:22;;;;;;;12.07;2.93;;;;;;;-145.18;100.00;47213.22;5037791;28;20030;-64
2023/05/26 09:51:49;;;;;;;11.93;3.03;;;;;;;-145.18;100.00;47197.59;5039890;28;20037;-64
2023/05/26 09:54:15;;;;;;;12.77;3.30;;;;;;;-145.18;100.00;47201.50;5053827;28;20073;-64
2023/05/26 09:56:52;;;;;;;12.33;2.77;;;;;;;-145.18;100.00;47203.47;5041843;28;20068;-64
2023/05/26 09:59:20;;;;;;;16.47;3.77;;;;;;;-145.18;100.00;47189.78;5042169;28;20117;-63
2023/05/26 10:01:46;;;;;;;16.07;3.97;;;;;;;-145.18;100.00;47195.66;5047970;28;20068;-64
2023/05/26 10:04:14;;;;;;;13.20;3.00;;;;;;;-145.18;100.00;47193.69;5039938;28;20037;-64
2023/05/26 10:06:40;;;;;;;22.00;3.80;;;;;;;-145.18;100.00;47191.75;5044307;28;20081;-64
2023/05/26 10:09:07;;;;;;;11.13;2.50;;;;;;;-145.18;100.00;47191.75;5052857;28;20039;-64
2023/05/26 10:11:36;;;;;;;15.43;3.00;;;;;;;-145.18;100.00;47176.09;5039039;28;20033;-64
2023/05/26 10:14:02;;;;;;;12.17;2.70;;;;;;;-145.18;100.00;47178.06;5049133;28;20433;-64
2023/05/26 10:16:29;;;;;;;11.20;2.53;;;;;;;-145.18;100.00;47181.97;5049693;28;20059;-64
2023/05/26 10:18:54;;;;;;;13.10;3.33;;;;;;;-145.18;100.00;47189.78;5043779;28;20379;-64
2023/05/26 10:21:24;;;;;;;12.40;2.97;;;;;;;-145.18;100.00;47185.88;5025160;28;20048;-64
2023/05/26 10:24:06;;;;;;;14.07;3.17;;;;;;;-145.18;100.00;47172.19;5052366;28;20632;-64
2023/05/26 10:27:00;;;;;;;13.17;3.10;;;;;;;-145.18;100.00;47176.09;5037850;28;20422;-64
2023/05/26 10:29:34;;;;;;;11.87;2.70;;;;;;;-145.18;100.00;47160.47;5037709;28;20447;-64
2023/05/26 10:32:00;;;;;;;13.43;3.17;;;;;;;-145.18;100.00;47164.38;5048340;28;20526;-64
2023/05/26 10:34:42;;;;;;;11.47;2.83;;;;;;;-145.18;100.00;47164.38;5036071;28;20068;-64
2023/05/26 10:37:16;;;;;;;16.47;3.50;;;;;;;-145.18;100.00;47160.47;5043267;28;20029;-64
2023/05/26 10:39:41;;;;;;;13.37;4.50;;;;;;;-145.18;100.00;47162.44;5037543;28;20041;-64
2023/05/26 10:42:18;;;;;;;13.17;2.83;;;;;;;-145.18;100.00;47154.63;5038036;28;20060;-64
2023/05/26 10:44:53;;;;;;;9.33;2.53;;;;;;;-145.18;100.00;47148.75;5023206;28;20048;-64
2023/05/26 10:47:19;;;;;;;8.82;2.15;;;;;;;-145.18;100.00;47144.84;5038147;28;20060;-64
2023/05/26 10:49:58;;;;;;;14.33;2.67;;;;;;;-145.18;100.00;47142.91;5042508;28;20379;-64
2023/05/26 10:52:25;;;;;;;11.83;2.50;;;;;;;-145.18;100.00;47150.72;5035196;28;20199;-64
2023/05/26 10:54:51;;;;;;;13.57;2.83;;;;;;;-145.18;100.00;47140.94;5051610;28;20070;-65
2023/05/26 10:57:32;;;;;;;9.07;2.43;;;;;;;-145.18;100.00;47129.22;5041445;28;20573;-64
2023/05/26 10:59:58;;;;;;;15.60;2.50;;;;;;;-145.18;100.00;47140.94;5040220;28;20017;-64